sensor_id;sensor_type;location;lat;lon;timestamp;P1;durP1;ratioP1;P2;durP2;ratioP2
8895;SDS011;4484;48.928;10.066;2023-03-01T00:01:06;15.00;;;8.97;;
8895;SDS011;4484;48.928;10.066;2023-03-01T00:03:35;17.13;;;10.07;;
8895;SDS011;4484;48.928;10.066;2023-03-01T00:06:03;15.33;;;8.97;;
8895;SDS011;4484;48.928;10.066;2023-03-01T00:08:30;13.90;;;9.10;;
8895;SDS011;4484;48.928;10.066;2023-03-01T00:13:30;13.20;;;8.43;;
8895;SDS011;4484;48.928;10.066;2023-03-01T00:15:57;12.27;;;8.20;;
8895;SDS011;4484;48.928;10.066;2023-03-01T00:18:24;17.07;;;8.77;;
8895;SDS011;4484;48.928;10.066;2023-03-01T00:20:51;14.30;;;9.27;;
8895;SDS011;4484;48.928;10.066;2023-03-01T00:23:22;14.97;;;9.40;;
8895;SDS011;4484;48.928;10.066;2023-03-01T00:25:49;14.27;;;8.93;;
8895;SDS011;4484;48.928;10.066;2023-03-01T00:28:17;17.70;;;9.70;;
8895;SDS011;4484;48.928;10.066;2023-03-01T00:30:44;16.00;;;10.47;;
8895;SDS011;4484;48.928;10.066;2023-03-01T00:33:11;14.37;;;9.23;;
8895;SDS011;4484;48.928;10.066;2023-03-01T00:35:39;14.53;;;8.97;;
8895;SDS011;4484;48.928;10.066;2023-03-01T00:38:06;14.57;;;9.70;;
8895;SDS011;4484;48.928;10.066;2023-03-01T00:40:33;14.93;;;9.00;;
8895;SDS011;4484;48.928;10.066;2023-03-01T00:43:01;17.33;;;10.07;;
8895;SDS011;4484;48.928;10.066;2023-03-01T00:45:28;15.90;;;10.63;;
8895;SDS011;4484;48.928;10.066;2023-03-01T00:47:57;17.63;;;10.27;;
8895;SDS011;4484;48.928;10.066;2023-03-01T00:50:25;16.47;;;10.87;;
8895;SDS011;4484;48.928;10.066;2023-03-01T00:52:52;14.10;;;9.40;;
8895;SDS011;4484;48.928;10.066;2023-03-01T00:55:20;14.53;;;10.17;;
8895;SDS011;4484;48.928;10.066;2023-03-01T00:57:48;16.70;;;10.80;;
8895;SDS011;4484;48.928;10.066;2023-03-01T01:00:15;16.93;;;10.03;;
8895;SDS011;4484;48.928;10.066;2023-03-01T01:02:42;17.57;;;10.40;;
8895;SDS011;4484;48.928;10.066;2023-03-01T01:05:09;14.73;;;10.17;;
8895;SDS011;4484;48.928;10.066;2023-03-01T01:07:36;16.53;;;10.50;;
8895;SDS011;4484;48.928;10.066;2023-03-01T01:10:03;17.53;;;9.90;;
8895;SDS011;4484;48.928;10.066;2023-03-01T01:12:30;15.57;;;10.33;;
8895;SDS011;4484;48.928;10.066;2023-03-01T01:14:58;17.03;;;10.70;;
8895;SDS011;4484;48.928;10.066;2023-03-01T01:17:25;16.27;;;10.50;;
8895;SDS011;4484;48.928;10.066;2023-03-01T01:19:51;19.20;;;10.60;;
8895;SDS011;4484;48.928;10.066;2023-03-01T01:22:18;16.70;;;10.33;;
8895;SDS011;4484;48.928;10.066;2023-03-01T01:24:45;16.57;;;10.80;;
8895;SDS011;4484;48.928;10.066;2023-03-01T01:27:12;20.90;;;10.03;;
8895;SDS011;4484;48.928;10.066;2023-03-01T01:29:38;16.93;;;10.07;;
8895;SDS011;4484;48.928;10.066;2023-03-01T01:32:05;17.77;;;10.57;;
8895;SDS011;4484;48.928;10.066;2023-03-01T01:34:32;16.53;;;10.73;;
8895;SDS011;4484;48.928;10.066;2023-03-01T01:36:59;16.17;;;10.23;;
8895;SDS011;4484;48.928;10.066;2023-03-01T01:39:28;18.53;;;10.97;;
8895;SDS011;4484;48.928;10.066;2023-03-01T01:41:55;14.60;;;10.53;;
8895;SDS011;4484;48.928;10.066;2023-03-01T01:44:26;18.43;;;9.93;;
8895;SDS011;4484;48.928;10.066;2023-03-01T01:46:55;17.33;;;10.97;;
8895;SDS011;4484;48.928;10.066;2023-03-01T01:52:14;18.60;;;10.80;;
8895;SDS011;4484;48.928;10.066;2023-03-01T01:57:33;19.53;;;10.73;;
8895;SDS011;4484;48.928;10.066;2023-03-01T02:00:08;17.83;;;10.50;;
8895;SDS011;4484;48.928;10.066;2023-03-01T02:02:46;22.30;;;11.37;;
8895;SDS011;4484;48.928;10.066;2023-03-01T02:05:18;16.37;;;10.60;;
8895;SDS011;4484;48.928;10.066;2023-03-01T02:08:07;20.23;;;11.53;;
8895;SDS011;4484;48.928;10.066;2023-03-01T02:10:36;16.87;;;10.10;;
8895;SDS011;4484;48.928;10.066;2023-03-01T02:13:04;17.90;;;11.00;;
8895;SDS011;4484;48.928;10.066;2023-03-01T02:15:31;19.87;;;11.83;;
8895;SDS011;4484;48.928;10.066;2023-03-01T02:17:59;18.77;;;11.60;;
8895;SDS011;4484;48.928;10.066;2023-03-01T02:23:21;16.13;;;10.50;;
8895;SDS011;4484;48.928;10.066;2023-03-01T02:28:34;16.87;;;11.43;;
8895;SDS011;4484;48.928;10.066;2023-03-01T02:31:04;17.90;;;11.20;;
8895;SDS011;4484;48.928;10.066;2023-03-01T02:33:52;20.70;;;11.00;;
8895;SDS011;4484;48.928;10.066;2023-03-01T02:36:21;18.33;;;10.90;;
8895;SDS011;4484;48.928;10.066;2023-03-01T02:38:56;15.33;;;10.73;;
8895;SDS011;4484;48.928;10.066;2023-03-01T02:41:26;18.27;;;10.90;;
8895;SDS011;4484;48.928;10.066;2023-03-01T02:43:57;18.07;;;11.23;;
8895;SDS011;4484;48.928;10.066;2023-03-01T02:46:25;16.83;;;10.87;;
8895;SDS011;4484;48.928;10.066;2023-03-01T02:48:53;16.13;;;11.03;;
8895;SDS011;4484;48.928;10.066;2023-03-01T02:56:39;19.20;;;12.37;;
8895;SDS011;4484;48.928;10.066;2023-03-01T02:59:07;20.80;;;11.50;;
8895;SDS011;4484;48.928;10.066;2023-03-01T03:01:36;17.00;;;10.93;;
8895;SDS011;4484;48.928;10.066;2023-03-01T03:04:10;16.97;;;11.17;;
8895;SDS011;4484;48.928;10.066;2023-03-01T03:06:45;19.00;;;10.90;;
8895;SDS011;4484;48.928;10.066;2023-03-01T03:09:14;20.10;;;11.20;;
8895;SDS011;4484;48.928;10.066;2023-03-01T03:11:42;18.93;;;11.27;;
8895;SDS011;4484;48.928;10.066;2023-03-01T03:14:10;16.37;;;10.33;;
8895;SDS011;4484;48.928;10.066;2023-03-01T03:16:48;15.80;;;10.80;;
8895;SDS011;4484;48.928;10.066;2023-03-01T03:19:16;15.87;;;10.83;;
8895;SDS011;4484;48.928;10.066;2023-03-01T03:21:44;17.67;;;10.97;;
8895;SDS011;4484;48.928;10.066;2023-03-01T03:24:11;14.63;;;10.03;;
8895;SDS011;4484;48.928;10.066;2023-03-01T03:26:38;17.07;;;10.43;;
8895;SDS011;4484;48.928;10.066;2023-03-01T03:29:05;17.17;;;10.87;;
8895;SDS011;4484;48.928;10.066;2023-03-01T03:31:32;19.37;;;11.10;;
8895;SDS011;4484;48.928;10.066;2023-03-01T03:33:59;18.43;;;11.87;;
8895;SDS011;4484;48.928;10.066;2023-03-01T03:36:26;18.67;;;11.30;;
8895;SDS011;4484;48.928;10.066;2023-03-01T03:38:53;18.00;;;10.90;;
8895;SDS011;4484;48.928;10.066;2023-03-01T03:41:20;18.67;;;11.47;;
8895;SDS011;4484;48.928;10.066;2023-03-01T03:43:47;21.47;;;11.40;;
8895;SDS011;4484;48.928;10.066;2023-03-01T03:46:15;17.80;;;12.60;;
8895;SDS011;4484;48.928;10.066;2023-03-01T03:48:43;18.80;;;11.07;;
8895;SDS011;4484;48.928;10.066;2023-03-01T03:51:11;21.40;;;11.80;;
8895;SDS011;4484;48.928;10.066;2023-03-01T03:53:40;21.23;;;11.77;;
8895;SDS011;4484;48.928;10.066;2023-03-01T03:56:07;18.00;;;11.80;;
8895;SDS011;4484;48.928;10.066;2023-03-01T03:58:35;16.47;;;10.97;;
8895;SDS011;4484;48.928;10.066;2023-03-01T04:01:02;17.63;;;11.23;;
8895;SDS011;4484;48.928;10.066;2023-03-01T04:03:29;17.10;;;11.40;;
8895;SDS011;4484;48.928;10.066;2023-03-01T04:05:58;19.33;;;11.47;;
8895;SDS011;4484;48.928;10.066;2023-03-01T04:08:26;20.07;;;11.23;;
8895;SDS011;4484;48.928;10.066;2023-03-01T04:10:58;19.47;;;12.27;;
8895;SDS011;4484;48.928;10.066;2023-03-01T04:13:46;20.10;;;12.80;;
8895;SDS011;4484;48.928;10.066;2023-03-01T04:16:13;18.83;;;12.17;;
8895;SDS011;4484;48.928;10.066;2023-03-01T04:18:40;18.23;;;11.23;;
8895;SDS011;4484;48.928;10.066;2023-03-01T04:21:07;21.43;;;11.47;;
8895;SDS011;4484;48.928;10.066;2023-03-01T04:23:34;21.67;;;11.87;;
8895;SDS011;4484;48.928;10.066;2023-03-01T04:26:01;17.00;;;11.37;;
8895;SDS011;4484;48.928;10.066;2023-03-01T04:28:32;19.13;;;11.33;;
8895;SDS011;4484;48.928;10.066;2023-03-01T04:31:05;19.23;;;12.07;;
8895;SDS011;4484;48.928;10.066;2023-03-01T04:33:40;18.37;;;11.33;;
8895;SDS011;4484;48.928;10.066;2023-03-01T04:36:09;23.23;;;12.20;;
8895;SDS011;4484;48.928;10.066;2023-03-01T04:38:37;17.47;;;10.70;;
8895;SDS011;4484;48.928;10.066;2023-03-01T04:41:05;18.37;;;12.10;;
8895;SDS011;4484;48.928;10.066;2023-03-01T04:43:34;21.80;;;12.50;;
8895;SDS011;4484;48.928;10.066;2023-03-01T04:46:01;17.87;;;11.67;;
8895;SDS011;4484;48.928;10.066;2023-03-01T04:48:30;19.47;;;11.40;;
8895;SDS011;4484;48.928;10.066;2023-03-01T04:50:58;20.10;;;11.70;;
8895;SDS011;4484;48.928;10.066;2023-03-01T04:53:26;21.80;;;12.03;;
8895;SDS011;4484;48.928;10.066;2023-03-01T04:55:54;18.93;;;11.97;;
8895;SDS011;4484;48.928;10.066;2023-03-01T04:58:22;17.73;;;10.97;;
8895;SDS011;4484;48.928;10.066;2023-03-01T05:00:50;19.47;;;11.87;;
8895;SDS011;4484;48.928;10.066;2023-03-01T05:03:18;19.33;;;11.70;;
8895;SDS011;4484;48.928;10.066;2023-03-01T05:05:47;18.80;;;11.37;;
8895;SDS011;4484;48.928;10.066;2023-03-01T05:08:15;17.63;;;11.27;;
8895;SDS011;4484;48.928;10.066;2023-03-01T05:10:50;21.43;;;12.87;;
8895;SDS011;4484;48.928;10.066;2023-03-01T05:13:19;20.50;;;12.70;;
8895;SDS011;4484;48.928;10.066;2023-03-01T05:15:53;21.97;;;12.60;;
8895;SDS011;4484;48.928;10.066;2023-03-01T05:18:25;23.23;;;13.47;;
8895;SDS011;4484;48.928;10.066;2023-03-01T05:20:53;20.50;;;12.20;;
8895;SDS011;4484;48.928;10.066;2023-03-01T05:23:31;16.27;;;10.97;;
8895;SDS011;4484;48.928;10.066;2023-03-01T05:26:02;18.30;;;11.53;;
8895;SDS011;4484;48.928;10.066;2023-03-01T05:28:32;21.47;;;12.57;;
8895;SDS011;4484;48.928;10.066;2023-03-01T05:31:00;20.23;;;11.37;;
8895;SDS011;4484;48.928;10.066;2023-03-01T05:33:27;17.23;;;11.00;;
8895;SDS011;4484;48.928;10.066;2023-03-01T05:35:54;22.93;;;12.10;;
8895;SDS011;4484;48.928;10.066;2023-03-01T05:38:26;19.60;;;12.63;;
8895;SDS011;4484;48.928;10.066;2023-03-01T05:40:52;23.13;;;13.60;;
8895;SDS011;4484;48.928;10.066;2023-03-01T05:43:19;21.20;;;12.23;;
8895;SDS011;4484;48.928;10.066;2023-03-01T05:45:46;17.40;;;11.43;;
8895;SDS011;4484;48.928;10.066;2023-03-01T05:48:13;22.43;;;13.03;;
8895;SDS011;4484;48.928;10.066;2023-03-01T05:50:42;22.83;;;13.43;;
8895;SDS011;4484;48.928;10.066;2023-03-01T05:53:11;22.50;;;12.73;;
8895;SDS011;4484;48.928;10.066;2023-03-01T05:55:47;21.70;;;12.77;;
8895;SDS011;4484;48.928;10.066;2023-03-01T05:58:16;24.07;;;12.73;;
8895;SDS011;4484;48.928;10.066;2023-03-01T06:00:46;21.50;;;12.50;;
8895;SDS011;4484;48.928;10.066;2023-03-01T06:03:15;22.53;;;14.20;;
8895;SDS011;4484;48.928;10.066;2023-03-01T06:05:43;24.83;;;13.83;;
8895;SDS011;4484;48.928;10.066;2023-03-01T06:08:11;23.70;;;12.83;;
8895;SDS011;4484;48.928;10.066;2023-03-01T06:10:38;21.80;;;13.07;;
8895;SDS011;4484;48.928;10.066;2023-03-01T06:13:05;24.53;;;13.47;;
8895;SDS011;4484;48.928;10.066;2023-03-01T06:15:32;20.83;;;12.27;;
8895;SDS011;4484;48.928;10.066;2023-03-01T06:17:59;22.00;;;12.50;;
8895;SDS011;4484;48.928;10.066;2023-03-01T06:20:27;21.47;;;12.43;;
8895;SDS011;4484;48.928;10.066;2023-03-01T06:22:54;20.63;;;12.73;;
8895;SDS011;4484;48.928;10.066;2023-03-01T06:25:22;20.13;;;12.37;;
8895;SDS011;4484;48.928;10.066;2023-03-01T06:27:51;21.00;;;12.97;;
8895;SDS011;4484;48.928;10.066;2023-03-01T06:30:19;21.63;;;12.57;;
8895;SDS011;4484;48.928;10.066;2023-03-01T06:32:47;22.37;;;12.10;;
8895;SDS011;4484;48.928;10.066;2023-03-01T06:35:15;20.33;;;12.50;;
8895;SDS011;4484;48.928;10.066;2023-03-01T06:37:46;21.97;;;12.60;;
8895;SDS011;4484;48.928;10.066;2023-03-01T06:40:14;21.17;;;12.73;;
8895;SDS011;4484;48.928;10.066;2023-03-01T06:42:42;23.97;;;13.70;;
8895;SDS011;4484;48.928;10.066;2023-03-01T06:45:10;29.53;;;14.33;;
8895;SDS011;4484;48.928;10.066;2023-03-01T06:47:37;22.13;;;12.30;;
8895;SDS011;4484;48.928;10.066;2023-03-01T06:50:04;25.83;;;14.30;;
8895;SDS011;4484;48.928;10.066;2023-03-01T06:52:32;21.33;;;13.03;;
8895;SDS011;4484;48.928;10.066;2023-03-01T06:54:58;21.27;;;13.03;;
8895;SDS011;4484;48.928;10.066;2023-03-01T06:57:26;20.17;;;12.90;;
8895;SDS011;4484;48.928;10.066;2023-03-01T06:59:53;21.03;;;13.00;;
8895;SDS011;4484;48.928;10.066;2023-03-01T07:02:20;20.37;;;12.83;;
8895;SDS011;4484;48.928;10.066;2023-03-01T07:04:48;18.83;;;12.43;;
8895;SDS011;4484;48.928;10.066;2023-03-01T07:07:16;20.00;;;12.67;;
8895;SDS011;4484;48.928;10.066;2023-03-01T07:09:44;21.27;;;12.13;;
8895;SDS011;4484;48.928;10.066;2023-03-01T07:12:11;23.93;;;13.40;;
8895;SDS011;4484;48.928;10.066;2023-03-01T07:14:38;21.30;;;11.97;;
8895;SDS011;4484;48.928;10.066;2023-03-01T07:17:05;21.73;;;12.60;;
8895;SDS011;4484;48.928;10.066;2023-03-01T07:19:32;21.07;;;13.50;;
8895;SDS011;4484;48.928;10.066;2023-03-01T07:21:59;21.47;;;14.13;;
8895;SDS011;4484;48.928;10.066;2023-03-01T07:24:26;28.20;;;14.07;;
8895;SDS011;4484;48.928;10.066;2023-03-01T07:26:53;24.93;;;13.30;;
8895;SDS011;4484;48.928;10.066;2023-03-01T07:29:20;26.20;;;13.00;;
8895;SDS011;4484;48.928;10.066;2023-03-01T07:31:47;23.67;;;13.13;;
8895;SDS011;4484;48.928;10.066;2023-03-01T07:34:14;24.43;;;13.73;;
8895;SDS011;4484;48.928;10.066;2023-03-01T07:36:40;18.03;;;12.50;;
8895;SDS011;4484;48.928;10.066;2023-03-01T07:39:09;18.67;;;12.33;;
8895;SDS011;4484;48.928;10.066;2023-03-01T07:41:37;19.27;;;12.33;;
8895;SDS011;4484;48.928;10.066;2023-03-01T07:44:04;20.37;;;12.47;;
8895;SDS011;4484;48.928;10.066;2023-03-01T07:46:31;22.23;;;13.07;;
8895;SDS011;4484;48.928;10.066;2023-03-01T07:48:58;22.23;;;12.40;;
8895;SDS011;4484;48.928;10.066;2023-03-01T07:51:25;22.63;;;12.53;;
8895;SDS011;4484;48.928;10.066;2023-03-01T07:53:52;19.13;;;12.27;;
8895;SDS011;4484;48.928;10.066;2023-03-01T07:56:19;18.93;;;11.87;;
8895;SDS011;4484;48.928;10.066;2023-03-01T07:58:47;17.67;;;11.70;;
8895;SDS011;4484;48.928;10.066;2023-03-01T08:01:18;20.43;;;12.23;;
8895;SDS011;4484;48.928;10.066;2023-03-01T08:03:46;19.67;;;12.00;;
8895;SDS011;4484;48.928;10.066;2023-03-01T08:06:15;20.93;;;12.53;;
8895;SDS011;4484;48.928;10.066;2023-03-01T08:08:43;20.77;;;11.87;;
8895;SDS011;4484;48.928;10.066;2023-03-01T08:11:10;18.20;;;10.77;;
8895;SDS011;4484;48.928;10.066;2023-03-01T08:13:38;17.30;;;11.70;;
8895;SDS011;4484;48.928;10.066;2023-03-01T08:16:13;22.47;;;13.07;;
8895;SDS011;4484;48.928;10.066;2023-03-01T08:18:42;17.17;;;11.57;;
8895;SDS011;4484;48.928;10.066;2023-03-01T08:21:10;19.37;;;12.10;;
8895;SDS011;4484;48.928;10.066;2023-03-01T08:23:39;26.80;;;14.17;;
8895;SDS011;4484;48.928;10.066;2023-03-01T08:26:10;22.80;;;13.77;;
8895;SDS011;4484;48.928;10.066;2023-03-01T08:28:39;18.97;;;11.80;;
8895;SDS011;4484;48.928;10.066;2023-03-01T08:31:17;21.87;;;12.60;;
8895;SDS011;4484;48.928;10.066;2023-03-01T08:33:45;19.93;;;12.27;;
8895;SDS011;4484;48.928;10.066;2023-03-01T08:36:26;20.43;;;11.67;;
8895;SDS011;4484;48.928;10.066;2023-03-01T08:38:56;16.17;;;11.07;;
8895;SDS011;4484;48.928;10.066;2023-03-01T08:41:23;17.50;;;10.97;;
8895;SDS011;4484;48.928;10.066;2023-03-01T08:43:50;17.93;;;11.47;;
8895;SDS011;4484;48.928;10.066;2023-03-01T08:46:17;22.03;;;13.17;;
8895;SDS011;4484;48.928;10.066;2023-03-01T08:48:44;27.30;;;16.73;;
8895;SDS011;4484;48.928;10.066;2023-03-01T08:51:12;33.63;;;19.47;;
8895;SDS011;4484;48.928;10.066;2023-03-01T08:53:41;27.77;;;16.70;;
8895;SDS011;4484;48.928;10.066;2023-03-01T08:56:08;18.37;;;12.90;;
8895;SDS011;4484;48.928;10.066;2023-03-01T08:58:36;16.90;;;11.63;;
8895;SDS011;4484;48.928;10.066;2023-03-01T09:01:07;17.40;;;11.07;;
8895;SDS011;4484;48.928;10.066;2023-03-01T09:03:35;19.20;;;11.23;;
8895;SDS011;4484;48.928;10.066;2023-03-01T09:06:03;16.37;;;10.70;;
8895;SDS011;4484;48.928;10.066;2023-03-01T09:08:33;16.97;;;12.37;;
8895;SDS011;4484;48.928;10.066;2023-03-01T09:11:02;20.13;;;12.10;;
8895;SDS011;4484;48.928;10.066;2023-03-01T09:13:29;15.30;;;11.50;;
8895;SDS011;4484;48.928;10.066;2023-03-01T09:16:00;17.50;;;12.00;;
8895;SDS011;4484;48.928;10.066;2023-03-01T09:18:29;16.50;;;11.10;;
8895;SDS011;4484;48.928;10.066;2023-03-01T09:23:36;18.67;;;11.57;;
8895;SDS011;4484;48.928;10.066;2023-03-01T09:26:06;15.70;;;11.03;;
8895;SDS011;4484;48.928;10.066;2023-03-01T09:28:37;19.10;;;11.00;;
8895;SDS011;4484;48.928;10.066;2023-03-01T09:31:05;21.60;;;12.07;;
8895;SDS011;4484;48.928;10.066;2023-03-01T09:33:32;16.50;;;11.37;;
8895;SDS011;4484;48.928;10.066;2023-03-01T09:36:00;17.57;;;12.00;;
8895;SDS011;4484;48.928;10.066;2023-03-01T09:38:29;16.47;;;11.33;;
8895;SDS011;4484;48.928;10.066;2023-03-01T09:40:56;15.40;;;11.07;;
8895;SDS011;4484;48.928;10.066;2023-03-01T09:43:25;16.03;;;9.77;;
8895;SDS011;4484;48.928;10.066;2023-03-01T09:46:04;14.10;;;10.13;;
8895;SDS011;4484;48.928;10.066;2023-03-01T09:51:35;17.77;;;11.17;;
8895;SDS011;4484;48.928;10.066;2023-03-01T09:54:02;15.80;;;10.93;;
8895;SDS011;4484;48.928;10.066;2023-03-01T09:56:53;15.30;;;10.97;;
8895;SDS011;4484;48.928;10.066;2023-03-01T10:06:23;14.83;;;10.33;;
8895;SDS011;4484;48.928;10.066;2023-03-01T10:09:02;19.90;;;11.83;;
8895;SDS011;4484;48.928;10.066;2023-03-01T10:11:41;17.10;;;11.03;;
8895;SDS011;4484;48.928;10.066;2023-03-01T10:22:12;17.83;;;11.33;;
8895;SDS011;4484;48.928;10.066;2023-03-01T10:24:52;15.23;;;11.43;;
8895;SDS011;4484;48.928;10.066;2023-03-01T10:27:25;17.57;;;11.93;;
8895;SDS011;4484;48.928;10.066;2023-03-01T10:30:13;16.17;;;11.30;;
8895;SDS011;4484;48.928;10.066;2023-03-01T10:32:46;21.10;;;11.87;;
8895;SDS011;4484;48.928;10.066;2023-03-01T10:35:24;16.80;;;11.17;;
8895;SDS011;4484;48.928;10.066;2023-03-01T10:37:57;17.57;;;11.87;;
8895;SDS011;4484;48.928;10.066;2023-03-01T10:40:24;19.03;;;11.83;;
8895;SDS011;4484;48.928;10.066;2023-03-01T10:42:51;17.57;;;9.90;;
8895;SDS011;4484;48.928;10.066;2023-03-01T10:50:51;14.50;;;10.73;;
8895;SDS011;4484;48.928;10.066;2023-03-01T10:56:03;14.93;;;11.13;;
8895;SDS011;4484;48.928;10.066;2023-03-01T10:58:36;15.83;;;10.80;;
8895;SDS011;4484;48.928;10.066;2023-03-01T11:01:26;18.57;;;10.97;;
8895;SDS011;4484;48.928;10.066;2023-03-01T11:06:37;14.70;;;10.77;;
8895;SDS011;4484;48.928;10.066;2023-03-01T11:09:15;14.83;;;10.17;;
8895;SDS011;4484;48.928;10.066;2023-03-01T11:11:51;13.90;;;10.17;;
8895;SDS011;4484;48.928;10.066;2023-03-01T11:14:26;17.23;;;10.77;;
8895;SDS011;4484;48.928;10.066;2023-03-01T11:17:00;13.83;;;10.20;;
8895;SDS011;4484;48.928;10.066;2023-03-01T11:22:50;15.20;;;10.70;;
8895;SDS011;4484;48.928;10.066;2023-03-01T11:25:35;15.23;;;10.00;;
8895;SDS011;4484;48.928;10.066;2023-03-01T11:28:04;15.77;;;10.43;;
8895;SDS011;4484;48.928;10.066;2023-03-01T11:30:53;14.47;;;10.43;;
8895;SDS011;4484;48.928;10.066;2023-03-01T11:33:43;14.10;;;10.33;;
8895;SDS011;4484;48.928;10.066;2023-03-01T11:36:34;10.93;;;9.13;;
8895;SDS011;4484;48.928;10.066;2023-03-01T11:41:48;17.67;;;11.00;;
8895;SDS011;4484;48.928;10.066;2023-03-01T11:44:34;14.00;;;10.80;;
8895;SDS011;4484;48.928;10.066;2023-03-01T11:47:13;16.70;;;10.17;;
8895;SDS011;4484;48.928;10.066;2023-03-01T11:52:30;15.07;;;10.00;;
8895;SDS011;4484;48.928;10.066;2023-03-01T11:58:07;15.90;;;11.00;;
8895;SDS011;4484;48.928;10.066;2023-03-01T12:01:01;17.90;;;11.37;;
8895;SDS011;4484;48.928;10.066;2023-03-01T12:03:53;16.63;;;11.17;;
8895;SDS011;4484;48.928;10.066;2023-03-01T12:06:49;19.10;;;11.43;;
8895;SDS011;4484;48.928;10.066;2023-03-01T12:15:11;14.87;;;10.97;;
8895;SDS011;4484;48.928;10.066;2023-03-01T12:37:39;12.53;;;10.23;;
8895;SDS011;4484;48.928;10.066;2023-03-01T12:40:25;13.20;;;10.87;;
8895;SDS011;4484;48.928;10.066;2023-03-01T12:52:09;15.23;;;10.63;;
8895;SDS011;4484;48.928;10.066;2023-03-01T12:55:01;12.93;;;10.13;;
8895;SDS011;4484;48.928;10.066;2023-03-01T12:57:36;14.10;;;11.03;;
8895;SDS011;4484;48.928;10.066;2023-03-01T13:03:40;12.30;;;10.03;;
8895;SDS011;4484;48.928;10.066;2023-03-01T13:06:25;12.97;;;10.20;;
8895;SDS011;4484;48.928;10.066;2023-03-01T13:12:00;14.40;;;9.90;;
8895;SDS011;4484;48.928;10.066;2023-03-01T13:14:36;15.67;;;10.60;;
8895;SDS011;4484;48.928;10.066;2023-03-01T13:17:03;12.27;;;9.33;;
8895;SDS011;4484;48.928;10.066;2023-03-01T13:19:30;13.20;;;9.60;;
8895;SDS011;4484;48.928;10.066;2023-03-01T13:21:58;13.43;;;10.80;;
8895;SDS011;4484;48.928;10.066;2023-03-01T13:24:41;15.80;;;10.97;;
8895;SDS011;4484;48.928;10.066;2023-03-01T13:30:02;12.60;;;10.33;;
8895;SDS011;4484;48.928;10.066;2023-03-01T13:32:30;13.07;;;10.77;;
8895;SDS011;4484;48.928;10.066;2023-03-01T13:37:37;12.90;;;10.13;;
8895;SDS011;4484;48.928;10.066;2023-03-01T13:40:05;12.60;;;10.20;;
8895;SDS011;4484;48.928;10.066;2023-03-01T13:42:52;12.43;;;9.37;;
8895;SDS011;4484;48.928;10.066;2023-03-01T13:45:38;12.37;;;9.60;;
8895;SDS011;4484;48.928;10.066;2023-03-01T13:48:11;19.27;;;13.00;;
8895;SDS011;4484;48.928;10.066;2023-03-01T13:50:53;17.13;;;11.60;;
8895;SDS011;4484;48.928;10.066;2023-03-01T13:53:24;17.07;;;10.07;;
8895;SDS011;4484;48.928;10.066;2023-03-01T13:55:56;27.33;;;15.53;;
8895;SDS011;4484;48.928;10.066;2023-03-01T13:58:30;30.93;;;16.73;;
8895;SDS011;4484;48.928;10.066;2023-03-01T14:01:00;32.67;;;17.80;;
8895;SDS011;4484;48.928;10.066;2023-03-01T14:03:33;25.07;;;14.07;;
8895;SDS011;4484;48.928;10.066;2023-03-01T14:06:15;27.63;;;14.97;;
8895;SDS011;4484;48.928;10.066;2023-03-01T14:08:48;26.40;;;14.40;;
8895;SDS011;4484;48.928;10.066;2023-03-01T14:11:33;38.57;;;19.17;;
8895;SDS011;4484;48.928;10.066;2023-03-01T14:14:17;19.60;;;11.93;;
8895;SDS011;4484;48.928;10.066;2023-03-01T14:17:02;29.37;;;16.73;;
8895;SDS011;4484;48.928;10.066;2023-03-01T14:19:43;27.83;;;16.43;;
8895;SDS011;4484;48.928;10.066;2023-03-01T14:25:28;19.50;;;10.57;;
8895;SDS011;4484;48.928;10.066;2023-03-01T14:30:44;17.97;;;11.63;;
8895;SDS011;4484;48.928;10.066;2023-03-01T14:38:31;13.90;;;10.27;;
8895;SDS011;4484;48.928;10.066;2023-03-01T14:41:09;15.63;;;11.00;;
8895;SDS011;4484;48.928;10.066;2023-03-01T14:43:46;23.77;;;13.00;;
8895;SDS011;4484;48.928;10.066;2023-03-01T14:48:54;21.10;;;12.67;;
8895;SDS011;4484;48.928;10.066;2023-03-01T14:51:27;20.47;;;13.40;;
8895;SDS011;4484;48.928;10.066;2023-03-01T14:53:54;14.37;;;10.43;;
8895;SDS011;4484;48.928;10.066;2023-03-01T14:56:22;14.87;;;10.23;;
8895;SDS011;4484;48.928;10.066;2023-03-01T14:58:53;15.40;;;10.87;;
8895;SDS011;4484;48.928;10.066;2023-03-01T15:01:24;16.27;;;10.70;;
8895;SDS011;4484;48.928;10.066;2023-03-01T15:03:52;14.83;;;10.60;;
8895;SDS011;4484;48.928;10.066;2023-03-01T15:06:20;15.37;;;9.77;;
8895;SDS011;4484;48.928;10.066;2023-03-01T15:08:52;15.20;;;10.60;;
8895;SDS011;4484;48.928;10.066;2023-03-01T15:11:28;14.53;;;10.53;;
8895;SDS011;4484;48.928;10.066;2023-03-01T15:13:57;16.60;;;10.27;;
8895;SDS011;4484;48.928;10.066;2023-03-01T15:16:29;15.90;;;10.47;;
8895;SDS011;4484;48.928;10.066;2023-03-01T15:19:05;15.53;;;10.03;;
8895;SDS011;4484;48.928;10.066;2023-03-01T15:21:33;17.33;;;9.83;;
8895;SDS011;4484;48.928;10.066;2023-03-01T15:24:05;13.27;;;9.70;;
8895;SDS011;4484;48.928;10.066;2023-03-01T15:26:51;14.93;;;10.20;;
8895;SDS011;4484;48.928;10.066;2023-03-01T15:29:33;15.37;;;11.00;;
8895;SDS011;4484;48.928;10.066;2023-03-01T15:32:22;18.17;;;10.10;;
8895;SDS011;4484;48.928;10.066;2023-03-01T15:34:58;14.17;;;9.47;;
8895;SDS011;4484;48.928;10.066;2023-03-01T15:37:48;15.30;;;10.30;;
8895;SDS011;4484;48.928;10.066;2023-03-01T15:40:26;14.00;;;9.57;;
8895;SDS011;4484;48.928;10.066;2023-03-01T15:42:58;15.43;;;9.67;;
8895;SDS011;4484;48.928;10.066;2023-03-01T15:45:40;14.83;;;9.50;;
8895;SDS011;4484;48.928;10.066;2023-03-01T15:48:15;14.93;;;9.40;;
8895;SDS011;4484;48.928;10.066;2023-03-01T15:50:53;16.03;;;9.93;;
8895;SDS011;4484;48.928;10.066;2023-03-01T15:53:21;18.37;;;9.50;;
8895;SDS011;4484;48.928;10.066;2023-03-01T15:55:49;14.13;;;9.00;;
8895;SDS011;4484;48.928;10.066;2023-03-01T15:58:21;14.80;;;9.17;;
8895;SDS011;4484;48.928;10.066;2023-03-01T16:00:49;15.00;;;9.60;;
8895;SDS011;4484;48.928;10.066;2023-03-01T16:03:27;14.73;;;9.60;;
8895;SDS011;4484;48.928;10.066;2023-03-01T16:05:54;16.00;;;10.00;;
8895;SDS011;4484;48.928;10.066;2023-03-01T16:08:22;12.80;;;9.30;;
8895;SDS011;4484;48.928;10.066;2023-03-01T16:10:48;15.93;;;9.83;;
8895;SDS011;4484;48.928;10.066;2023-03-01T16:13:17;17.40;;;10.13;;
8895;SDS011;4484;48.928;10.066;2023-03-01T16:15:44;16.87;;;9.73;;
8895;SDS011;4484;48.928;10.066;2023-03-01T16:18:11;15.43;;;9.40;;
8895;SDS011;4484;48.928;10.066;2023-03-01T16:20:38;17.47;;;10.37;;
8895;SDS011;4484;48.928;10.066;2023-03-01T16:23:06;15.63;;;10.00;;
8895;SDS011;4484;48.928;10.066;2023-03-01T16:25:34;14.83;;;10.17;;
8895;SDS011;4484;48.928;10.066;2023-03-01T16:28:01;16.37;;;10.60;;
8895;SDS011;4484;48.928;10.066;2023-03-01T16:30:34;17.97;;;10.77;;
8895;SDS011;4484;48.928;10.066;2023-03-01T16:33:02;17.13;;;10.17;;
8895;SDS011;4484;48.928;10.066;2023-03-01T16:35:50;17.20;;;10.10;;
8895;SDS011;4484;48.928;10.066;2023-03-01T16:38:17;14.03;;;9.27;;
8895;SDS011;4484;48.928;10.066;2023-03-01T16:40:48;15.00;;;9.17;;
8895;SDS011;4484;48.928;10.066;2023-03-01T16:43:15;13.87;;;9.33;;
8895;SDS011;4484;48.928;10.066;2023-03-01T16:45:42;14.67;;;8.90;;
8895;SDS011;4484;48.928;10.066;2023-03-01T16:48:11;14.23;;;9.30;;
8895;SDS011;4484;48.928;10.066;2023-03-01T16:50:38;16.73;;;8.90;;
8895;SDS011;4484;48.928;10.066;2023-03-01T16:53:05;15.17;;;9.07;;
8895;SDS011;4484;48.928;10.066;2023-03-01T16:55:32;13.33;;;9.37;;
8895;SDS011;4484;48.928;10.066;2023-03-01T16:57:59;14.50;;;9.40;;
8895;SDS011;4484;48.928;10.066;2023-03-01T17:00:26;16.20;;;9.57;;